createdAt,value
2018-04-19T00:03:32.368Z,99357.05
2018-04-19T00:05:58.664Z,99351.62
2018-04-19T00:08:24.943Z,99355.03
2018-04-19T00:10:51.179Z,99354.94
2018-04-19T00:13:17.452Z,99349.07
2018-04-19T00:18:33.484Z,99352.97
2018-04-19T00:20:59.719Z,99347.63
2018-04-19T00:23:25.951Z,99342.66
2018-04-19T00:25:52.215Z,99347.85
2018-04-19T00:28:18.443Z,99344.45
2018-04-19T00:30:44.676Z,99344.05
2018-04-19T00:33:10.936Z,99338.25
2018-04-19T00:35:37.167Z,99335.30
2018-04-19T00:38:03.455Z,99341.17
2018-04-19T00:40:29.692Z,99338.55
2018-04-19T00:42:55.934Z,99334.81
2018-04-19T00:45:22.215Z,99342.41
2018-04-19T00:47:48.452Z,99343.70
2018-04-19T00:50:14.715Z,99335.33
2018-04-19T00:52:53.308Z,99335.79
2018-04-19T00:55:19.571Z,99329.83
2018-04-19T00:57:45.811Z,99329.89
2018-04-19T01:00:12.048Z,99334.06
2018-04-19T01:02:38.342Z,99328.26
2018-04-19T01:05:04.600Z,99331.42
2018-04-19T01:07:30.875Z,99332.72
2018-04-19T01:09:57.115Z,99336.90
2018-04-19T01:12:23.391Z,99336.51
2018-04-19T01:14:49.624Z,99344.33
2018-04-19T01:17:15.863Z,99342.47
2018-04-19T01:19:42.155Z,99337.61
2018-04-19T01:22:08.386Z,99344.72
2018-04-19T01:24:34.655Z,99339.92
2018-04-19T01:27:00.915Z,99333.43
2018-04-19T01:29:27.148Z,99331.48
2018-04-19T01:31:53.410Z,99336.56
2018-04-19T01:34:19.647Z,99336.23
2018-04-19T01:36:45.916Z,99338.25
2018-04-19T01:39:12.146Z,99338.17
2018-04-19T01:41:38.404Z,99330.87
2018-04-19T01:44:04.670Z,99333.25
2018-04-19T01:46:30.909Z,99334.25
2018-04-19T01:48:57.170Z,99329.80
2018-04-19T01:51:23.443Z,99322.21
2018-04-19T01:53:49.693Z,99328.22
2018-04-19T01:56:15.957Z,99326.97
2018-04-19T01:58:42.212Z,99331.16
2018-04-19T02:01:08.467Z,99331.16
2018-04-19T02:03:34.731Z,99328.27
2018-04-19T02:06:01.072Z,99326.97
2018-04-19T02:08:27.315Z,99328.55
2018-04-19T02:10:53.575Z,99329.00
2018-04-19T02:13:19.807Z,99323.58
2018-04-19T02:15:46.039Z,99317.57
2018-04-19T02:18:12.331Z,99323.14
2018-04-19T02:20:38.566Z,99321.25
2018-04-19T02:23:04.827Z,99323.20
2018-04-19T02:25:31.072Z,99319.58
2018-04-19T02:27:57.343Z,99321.52
2018-04-19T02:30:23.611Z,99319.80
2018-04-19T02:32:49.906Z,99314.45
2018-04-19T02:35:16.167Z,99314.17
2018-04-19T02:37:42.443Z,99318.34
2018-04-19T02:40:08.699Z,99317.85
2018-04-19T02:42:34.967Z,99314.28
2018-04-19T02:45:01.210Z,99315.01
2018-04-19T02:47:27.493Z,99318.10
2018-04-19T02:49:53.731Z,99315.05
2018-04-19T02:52:20.004Z,99318.14
2018-04-19T02:54:46.247Z,99313.70
2018-04-19T02:57:12.508Z,99310.05
2018-04-19T02:59:38.782Z,99312.23
2018-04-19T03:02:05.028Z,99309.89
2018-04-19T03:04:31.319Z,99303.30
2018-04-19T03:06:57.557Z,99307.68
2018-04-19T03:09:23.831Z,99307.13
2018-04-19T03:11:50.095Z,99305.32
2018-04-19T03:14:16.368Z,99302.77
2018-04-19T03:16:42.610Z,99302.93
2018-04-19T03:19:08.891Z,99302.16
2018-04-19T03:21:35.135Z,99301.13
2018-04-19T03:24:01.404Z,99301.46
2018-04-19T03:26:27.692Z,99299.27
2018-04-19T03:28:53.980Z,99306.45
2018-04-19T03:31:20.256Z,99295.31
2018-04-19T03:33:46.503Z,99302.88
2018-04-19T03:36:12.770Z,99304.44
2018-04-19T03:38:39.015Z,99303.61
2018-04-19T03:41:05.286Z,99299.37
2018-04-19T03:43:31.523Z,99302.30
2018-04-19T03:45:57.795Z,99297.61
2018-04-19T03:48:24.083Z,99297.33
2018-04-19T03:50:50.351Z,99295.56
2018-04-19T03:53:16.659Z,99293.95
2018-04-19T03:55:42.958Z,99296.16
2018-04-19T03:58:09.202Z,99295.41
2018-04-19T04:00:35.479Z,99295.25
2018-04-19T04:03:01.725Z,99296.34
2018-04-19T04:05:28.035Z,99287.94
2018-04-19T04:07:54.276Z,99291.01
2018-04-19T04:10:20.506Z,99284.16
2018-04-19T04:12:46.782Z,99289.17
2018-04-19T04:15:13.019Z,99286.25
2018-04-19T04:17:51.583Z,99287.81
2018-04-19T04:20:30.199Z,99288.62
2018-04-19T04:23:08.739Z,99282.20
2018-04-19T04:25:34.976Z,99286.25
2018-04-19T04:28:01.275Z,99283.86
2018-04-19T04:30:27.538Z,99289.88
2018-04-19T04:32:53.811Z,99274.21
2018-04-19T04:35:20.138Z,99283.22
2018-04-19T04:37:46.399Z,99278.66
2018-04-19T04:40:12.640Z,99287.45
2018-04-19T04:42:38.883Z,99284.27
2018-04-19T04:45:05.164Z,99280.12
2018-04-19T04:47:31.415Z,99287.75
2018-04-19T04:49:57.688Z,99290.86
2018-04-19T04:52:23.982Z,99294.76
2018-04-19T04:54:50.255Z,99284.74
2018-04-19T04:57:16.490Z,99290.94
2018-04-19T04:59:42.807Z,99285.20
2018-04-19T05:02:09.082Z,99285.00
2018-04-19T05:04:35.350Z,99280.46
2018-04-19T05:07:01.631Z,99286.11
2018-04-19T05:09:27.934Z,99283.00
2018-04-19T05:11:54.219Z,99278.72
2018-04-19T05:14:20.491Z,99285.82
2018-04-19T05:16:46.735Z,99286.11
2018-04-19T05:19:13.011Z,99290.41
2018-04-19T05:21:39.279Z,99293.08
2018-04-19T05:24:05.561Z,99292.64
2018-04-19T05:26:31.811Z,99285.85
2018-04-19T05:28:58.047Z,99290.52
2018-04-19T05:31:24.323Z,99292.54
2018-04-19T05:33:50.579Z,99294.36
2018-04-19T05:36:16.851Z,99286.54
2018-04-19T05:38:43.086Z,99294.54
2018-04-19T05:41:09.315Z,99286.57
2018-04-19T05:43:35.578Z,99295.19
2018-04-19T05:46:01.835Z,99292.62
2018-04-19T05:48:28.147Z,99291.05
2018-04-19T05:50:54.402Z,99294.11
2018-04-19T05:53:20.663Z,99293.84
2018-04-19T05:55:46.904Z,99291.84
2018-04-19T05:58:13.174Z,99293.55
2018-04-19T06:00:39.442Z,99291.74
2018-04-19T06:03:05.707Z,99292.19
2018-04-19T06:05:31.952Z,99283.38
2018-04-19T06:07:58.219Z,99288.01
2018-04-19T06:10:24.447Z,99295.64
2018-04-19T06:12:50.702Z,99294.84
2018-04-19T06:15:17.068Z,99293.55
2018-04-19T06:17:43.271Z,99299.02
2018-04-19T06:20:09.631Z,99297.46
2018-04-19T06:22:35.907Z,99301.91
2018-04-19T06:25:02.195Z,99305.38
2018-04-19T06:27:28.443Z,99305.00
2018-04-19T06:29:54.746Z,99305.02
2018-04-19T06:32:20.996Z,99300.52
2018-04-19T06:34:47.243Z,99305.92
2018-04-19T06:37:13.530Z,99303.73
2018-04-19T06:39:39.800Z,99315.31
2018-04-19T06:42:06.067Z,99306.84
2018-04-19T06:44:32.403Z,99310.50
2018-04-19T06:46:58.695Z,99315.55
2018-04-19T06:49:24.937Z,99314.50
2018-04-19T06:51:51.211Z,99306.92
2018-04-19T06:54:17.459Z,99312.16
2018-04-19T06:56:43.699Z,99314.44
2018-04-19T06:59:09.991Z,99310.46
2018-04-19T07:01:36.242Z,99314.66
2018-04-19T07:04:02.539Z,99317.09
2018-04-19T07:06:28.779Z,99311.37
2018-04-19T07:08:55.050Z,99317.71
2018-04-19T07:11:22.175Z,99315.23
2018-04-19T07:13:48.439Z,99316.55
2018-04-19T07:16:14.797Z,99315.56
2018-04-19T07:18:41.047Z,99317.67
2018-04-19T07:21:07.419Z,99315.64
2018-04-19T07:23:33.663Z,99312.94
2018-04-19T07:25:59.948Z,99310.00
2018-04-19T07:28:26.195Z,99307.53
2018-04-19T07:30:52.469Z,99303.09
2018-04-19T07:33:18.739Z,99307.75
2018-04-19T07:35:44.983Z,99303.13
2018-04-19T07:38:11.251Z,99307.45
2018-04-19T07:40:37.496Z,99305.38
2018-04-19T07:43:03.813Z,99311.27
2018-04-19T07:45:30.063Z,99310.89
2018-04-19T07:47:56.335Z,99305.72
2018-04-19T07:50:22.634Z,99307.77
2018-04-19T07:52:48.896Z,99315.69
2018-04-19T07:55:15.135Z,99307.73
2018-04-19T07:57:41.414Z,99313.41
2018-04-19T08:00:07.683Z,99313.78
2018-04-19T08:02:33.958Z,99314.49
2018-04-19T08:05:00.234Z,99315.53
2018-04-19T08:07:26.479Z,99311.80
2018-04-19T08:09:52.742Z,99306.48
2018-04-19T08:12:19.128Z,99299.66
2018-04-19T08:14:45.407Z,99296.66
2018-04-19T08:17:11.655Z,99293.08
2018-04-19T08:19:37.899Z,99297.70
2018-04-19T08:22:04.179Z,99294.70
2018-04-19T08:24:30.434Z,99292.00
2018-04-19T08:26:56.711Z,99297.28
2018-04-19T08:29:22.972Z,99301.06
2018-04-19T08:34:22.175Z,99299.82
2018-04-19T08:36:48.447Z,99300.33
2018-04-19T08:39:14.715Z,99295.91
2018-04-19T08:41:41.031Z,99292.66
2018-04-19T08:44:07.272Z,99296.41
2018-04-19T08:46:34.131Z,99295.06
2018-04-19T08:49:00.404Z,99300.23
2018-04-19T08:51:26.642Z,99296.78
2018-04-19T08:53:52.931Z,99298.94
2018-04-19T08:56:19.171Z,99296.72
2018-04-19T08:58:45.524Z,99295.68
2018-04-19T09:01:11.816Z,99293.83
2018-04-19T09:03:38.091Z,99290.09
2018-04-19T09:06:04.333Z,99289.59
2018-04-19T09:08:30.591Z,99288.75
2018-04-19T09:10:56.859Z,99285.84
2018-04-19T09:13:23.130Z,99279.20
2018-04-19T09:15:49.403Z,99287.22
2018-04-19T09:18:15.647Z,99287.06
2018-04-19T09:20:41.920Z,99289.34
2018-04-19T09:23:08.178Z,99285.27
2018-04-19T09:25:34.466Z,99280.95
2018-04-19T09:28:00.712Z,99283.87
2018-04-19T09:30:26.976Z,99287.79
2018-04-19T09:32:53.247Z,99277.91
2018-04-19T09:35:19.559Z,99284.53
2018-04-19T09:37:45.839Z,99285.05
2018-04-19T09:40:12.125Z,99276.58
2018-04-19T09:42:38.390Z,99276.47
2018-04-19T09:45:04.639Z,99278.83
2018-04-19T09:47:30.927Z,99273.97
2018-04-19T09:49:57.201Z,99275.38
2018-04-19T09:52:23.472Z,99270.98
2018-04-19T09:54:49.763Z,99272.82
2018-04-19T09:57:16.012Z,99268.05
2018-04-19T09:59:42.271Z,99268.89
2018-04-19T10:02:08.551Z,99270.37
2018-04-19T10:04:34.820Z,99268.24
2018-04-19T10:07:01.122Z,99266.58
2018-04-19T10:09:27.408Z,99264.73
2018-04-19T10:11:53.652Z,99261.82
2018-04-19T10:14:19.891Z,99253.06
2018-04-19T10:16:46.154Z,99250.13
2018-04-19T10:19:12.447Z,99251.34
2018-04-19T10:21:38.727Z,99251.63
2018-04-19T10:24:04.972Z,99250.36
2018-04-19T10:26:31.240Z,99245.54
2018-04-19T10:28:57.470Z,99243.42
2018-04-19T10:31:23.773Z,99250.52
2018-04-19T10:33:50.067Z,99242.28
2018-04-19T10:36:16.285Z,99238.77
2018-04-19T10:38:42.547Z,99232.67
2018-04-19T10:41:08.787Z,99232.98
2018-04-19T10:43:35.056Z,99235.41
2018-04-19T10:46:01.316Z,99233.70
2018-04-19T10:48:27.591Z,99230.47
2018-04-19T10:50:53.834Z,99227.12
2018-04-19T10:53:20.106Z,99220.06
2018-04-19T10:55:46.341Z,99224.76
2018-04-19T10:58:12.579Z,99225.66
2018-04-19T11:00:38.879Z,99217.23
2018-04-19T11:03:05.128Z,99212.22
2018-04-19T11:05:31.416Z,99216.23
2018-04-19T11:07:57.664Z,99212.59
2018-04-19T11:10:23.926Z,99212.71
2018-04-19T11:12:50.183Z,99214.14
2018-04-19T11:15:16.458Z,99200.68
2018-04-19T11:17:42.690Z,99204.20
2018-04-19T11:20:08.935Z,99194.31
2018-04-19T11:22:35.271Z,99200.09
2018-04-19T11:25:01.491Z,99197.70
2018-04-19T11:27:27.794Z,99196.27
2018-04-19T11:29:54.043Z,99199.75
2018-04-19T11:32:20.340Z,99197.84
2018-04-19T11:34:46.599Z,99192.58
2018-04-19T11:37:12.850Z,99189.30
2018-04-19T11:39:39.128Z,99188.92
2018-04-19T11:42:05.388Z,99192.78
2018-04-19T11:44:31.692Z,99188.72
2018-04-19T11:46:57.968Z,99182.62
2018-04-19T11:49:24.255Z,99183.98
2018-04-19T11:51:50.507Z,99186.22
2018-04-19T11:54:16.784Z,99185.16
2018-04-19T11:56:43.031Z,99178.30
2018-04-19T11:59:09.271Z,99168.56
2018-04-19T12:01:35.576Z,99166.81
2018-04-19T12:04:01.829Z,99166.94
2018-04-19T12:06:28.106Z,99173.13
2018-04-19T12:08:54.466Z,99173.50
2018-04-19T12:11:27.722Z,99163.11
2018-04-19T12:13:53.988Z,99169.13
2018-04-19T12:16:20.307Z,99164.73
2018-04-19T12:18:46.552Z,99160.39
2018-04-19T12:21:12.889Z,99165.30
2018-04-19T12:23:39.230Z,99158.77
2018-04-19T12:26:05.512Z,99159.63
2018-04-19T12:28:31.783Z,99159.30
2018-04-19T12:30:58.033Z,99154.42
2018-04-19T12:33:24.311Z,99140.89
2018-04-19T12:35:50.562Z,99151.16
2018-04-19T12:38:16.884Z,99153.88
2018-04-19T12:40:43.140Z,99141.09
2018-04-19T12:43:09.421Z,99139.56
2018-04-19T12:45:35.697Z,99144.11
2018-04-19T12:48:01.979Z,99140.78
2018-04-19T12:50:28.247Z,99139.53
2018-04-19T12:52:54.483Z,99129.34
2018-04-19T12:55:20.751Z,99133.63
2018-04-19T12:57:46.994Z,99126.57
2018-04-19T13:00:13.279Z,99132.55
2018-04-19T13:02:39.528Z,99127.24
2018-04-19T13:05:05.860Z,99121.47
2018-04-19T13:07:32.108Z,99123.19
2018-04-19T13:09:58.387Z,99120.20
2018-04-19T13:12:24.616Z,99112.37
2018-04-19T13:14:50.999Z,99115.11
2018-04-19T13:17:17.248Z,99114.93
2018-04-19T13:19:43.523Z,99109.39
2018-04-19T13:22:09.794Z,99105.61
2018-04-19T13:24:36.091Z,99102.66
2018-04-19T13:27:02.351Z,99101.42
2018-04-19T13:29:28.632Z,99093.05
2018-04-19T13:31:54.893Z,99095.88
2018-04-19T13:34:21.139Z,99097.66
2018-04-19T13:36:47.415Z,99094.27
2018-04-19T13:39:13.708Z,99096.70
2018-04-19T13:41:39.966Z,99091.99
2018-04-19T13:44:06.244Z,99091.23
2018-04-19T13:46:32.521Z,99082.62
2018-04-19T13:48:58.788Z,99086.11
2018-04-19T13:51:25.090Z,99071.83
2018-04-19T13:53:51.392Z,99080.08
2018-04-19T13:56:17.696Z,99071.26
2018-04-19T13:58:43.947Z,99065.30
2018-04-19T14:01:10.270Z,99066.23
2018-04-19T14:03:36.551Z,99062.13
2018-04-19T14:06:02.863Z,99054.42
2018-04-19T14:08:29.135Z,99064.73
2018-04-19T14:10:55.422Z,99057.57
2018-04-19T14:13:21.710Z,99059.06
2018-04-19T14:15:47.956Z,99053.19
2018-04-19T14:18:14.267Z,99045.66
2018-04-19T14:20:40.513Z,99036.97
2018-04-19T14:23:06.790Z,99036.10
2018-04-19T14:25:33.064Z,99040.97
2018-04-19T14:27:59.332Z,99035.34
2018-04-19T14:30:25.612Z,99027.55
2018-04-19T14:32:51.876Z,99030.25
2018-04-19T14:35:18.159Z,99027.01
2018-04-19T14:37:44.409Z,99023.80
2018-04-19T14:40:10.686Z,99025.19
2018-04-19T14:42:36.943Z,99018.70
2018-04-19T14:45:03.236Z,99019.91
2018-04-19T14:47:29.483Z,99015.73
2018-04-19T14:49:55.795Z,99018.55
2018-04-19T14:52:22.073Z,99018.62
2018-04-19T14:54:48.327Z,99019.20
2018-04-19T14:57:14.632Z,99016.55
2018-04-19T14:59:40.885Z,99018.94
2018-04-19T15:02:07.173Z,99014.92
2018-04-19T15:04:33.424Z,99016.08
2018-04-19T15:06:59.696Z,99009.81
2018-04-19T15:09:26.000Z,99014.66
2018-04-19T15:11:52.300Z,99015.61
2018-04-19T15:14:18.600Z,99013.02
2018-04-19T15:16:44.855Z,99013.09
2018-04-19T15:19:12.399Z,99005.45
2018-04-19T15:21:39.495Z,99000.88
2018-04-19T15:24:07.735Z,99005.60
2018-04-19T15:26:34.044Z,98997.99
2018-04-19T15:29:00.347Z,99003.98
2018-04-19T15:31:26.588Z,99000.27
2018-04-19T15:33:52.854Z,99003.40
2018-04-19T15:36:19.319Z,99002.31
2018-04-19T15:38:45.721Z,98997.48
2018-04-19T15:41:12.175Z,98999.98
2018-04-19T15:43:38.417Z,99003.84
2018-04-19T15:46:05.088Z,99002.02
2018-04-19T15:48:31.339Z,99003.41
2018-04-19T15:50:57.620Z,98994.91
2018-04-19T15:53:23.856Z,98996.11
2018-04-19T15:55:50.127Z,98992.34
2018-04-19T15:58:16.563Z,99004.20
2018-04-19T16:00:42.858Z,98994.34
2018-04-19T16:03:09.567Z,98994.32
2018-04-19T16:05:36.025Z,98996.34
2018-04-19T16:08:02.267Z,98998.05
2018-04-19T17:13:47.707Z,98975.06
2018-04-19T17:16:14.012Z,98971.10
2018-04-19T17:18:40.284Z,98976.52
2018-04-19T17:21:06.527Z,98978.25
2018-04-19T17:23:32.828Z,98971.66
2018-04-19T17:25:59.071Z,98975.53
2018-04-19T17:28:25.865Z,98972.04
2018-04-19T17:30:52.211Z,98969.86
2018-04-19T17:33:18.480Z,98968.66
2018-04-19T17:35:44.742Z,98980.05
2018-04-19T17:38:11.024Z,98979.41
2018-04-19T17:40:37.307Z,98981.36
2018-04-19T17:43:03.613Z,98974.45
2018-04-19T17:45:29.899Z,98979.50
2018-04-19T17:47:56.158Z,98981.28
2018-04-19T17:50:22.431Z,98982.09
2018-04-19T17:52:48.720Z,98978.36
2018-04-19T17:55:15.023Z,98977.16
2018-04-19T17:57:41.287Z,98982.77
2018-04-19T18:00:07.544Z,98984.02
2018-04-19T18:02:33.815Z,98983.90
2018-04-19T18:05:00.083Z,98985.64
2018-04-19T18:07:26.371Z,98990.09
2018-04-19T18:09:52.627Z,98987.42
2018-04-19T18:12:18.899Z,98987.42
2018-04-19T18:14:45.245Z,98985.28
2018-04-19T18:17:11.515Z,98991.61
2018-04-19T18:19:38.023Z,98990.73
2018-04-19T18:22:04.271Z,98996.39
2018-04-19T18:24:30.580Z,98996.55
2018-04-19T18:26:56.823Z,98996.14
2018-04-19T18:29:23.170Z,99004.95
2018-04-19T18:31:49.410Z,99003.73
2018-04-19T18:34:15.687Z,99007.41
2018-04-19T18:36:41.951Z,99007.34
2018-04-19T18:39:08.216Z,99009.00
2018-04-19T18:41:34.508Z,99010.94
2018-04-19T18:44:00.772Z,99010.86
2018-04-19T18:46:27.083Z,99011.05
2018-04-19T18:48:53.596Z,99013.41
2018-04-19T18:51:20.150Z,99014.29
2018-04-19T18:53:46.708Z,99018.80
2018-04-19T18:56:13.126Z,99014.98
2018-04-19T18:58:39.641Z,99015.91
2018-04-19T19:01:06.187Z,99014.94
2018-04-19T19:03:32.506Z,99022.51
2018-04-19T19:05:58.994Z,99021.75
2018-04-19T19:08:25.263Z,99019.01
2018-04-19T19:10:51.659Z,99026.37
2018-04-19T19:13:17.961Z,99024.41
2018-04-19T19:29:16.743Z,99018.84
2018-04-19T19:31:42.974Z,99019.78
2018-04-19T19:34:09.243Z,99022.67
2018-04-19T19:36:35.543Z,99021.78
2018-04-19T19:39:01.865Z,99024.44
2018-04-19T19:41:28.133Z,99022.16
2018-04-19T19:43:54.374Z,99022.93
2018-04-19T19:46:20.647Z,99027.16
2018-04-19T19:48:46.903Z,99022.03
2018-04-19T19:51:13.186Z,99017.29
2018-04-19T19:53:39.523Z,99024.09
2018-04-19T19:56:05.786Z,99019.63
2018-04-19T19:58:32.026Z,99019.53
2018-04-19T20:00:58.297Z,99017.61
2018-04-19T20:03:24.535Z,99017.36
2018-04-19T20:05:50.860Z,99014.92
2018-04-19T20:08:17.107Z,99016.62
2018-04-19T20:10:43.335Z,99013.57
2018-04-19T20:13:09.582Z,99009.47
2018-04-19T20:15:35.827Z,99013.21
2018-04-19T20:18:02.099Z,99013.09
2018-04-19T20:20:28.428Z,99007.09
2018-04-19T20:22:54.687Z,99012.63
2018-04-19T20:25:20.923Z,99002.30
2018-04-19T20:27:47.230Z,99014.34
2018-04-19T20:30:13.468Z,99008.20
2018-04-19T20:32:39.699Z,99009.10
2018-04-19T20:35:06.043Z,99014.64
2018-04-19T20:37:32.267Z,99014.74
2018-04-19T20:39:58.532Z,99010.53
2018-04-19T20:42:24.763Z,99004.51
2018-04-19T20:44:51.027Z,99010.94
2018-04-19T20:47:17.327Z,99009.55
2018-04-19T20:49:43.700Z,99005.17
2018-04-19T20:52:10.120Z,99005.30
2018-04-19T20:54:36.375Z,99010.31
2018-04-19T20:57:02.623Z,99008.36
2018-04-19T20:59:28.850Z,99000.80
2018-04-19T21:01:55.099Z,99007.20
2018-04-19T21:04:21.407Z,99011.83
2018-04-19T21:06:47.704Z,99010.05
2018-04-19T21:09:13.951Z,99009.70
2018-04-19T21:11:40.220Z,99002.03
2018-04-19T21:14:06.451Z,99008.95
2018-04-19T21:16:32.749Z,99002.29
2018-04-19T21:18:59.179Z,99008.32
2018-04-19T21:21:25.415Z,99007.69
2018-04-19T21:23:51.659Z,99007.56
2018-04-19T21:26:17.902Z,99009.81
2018-04-19T21:28:44.170Z,99001.76
2018-04-19T21:31:10.391Z,99000.84
2018-04-19T21:33:36.647Z,98999.81
2018-04-19T21:36:02.883Z,98999.80
2018-04-19T21:38:29.104Z,98992.63
2018-04-19T21:40:55.347Z,98988.30
2018-04-19T21:43:21.575Z,98988.13
2018-04-19T21:45:47.921Z,98990.05
2018-04-19T21:48:14.179Z,98990.30
2018-04-19T21:50:40.426Z,98989.41
2018-04-19T21:53:06.679Z,98981.60
2018-04-19T21:55:32.963Z,98978.66
2018-04-19T21:57:59.205Z,98978.14
2018-04-19T22:00:25.484Z,98971.50
2018-04-19T22:02:51.714Z,98978.66
2018-04-19T22:05:17.943Z,98974.33
2018-04-19T22:07:44.218Z,98973.94
2018-04-19T22:10:10.442Z,98968.55
2018-04-19T22:12:36.691Z,98966.10
2018-04-19T22:15:02.943Z,98965.32
2018-04-19T22:17:29.198Z,98964.27
2018-04-19T22:19:55.435Z,98963.47
2018-04-19T22:22:21.690Z,98963.72
2018-04-19T22:24:47.950Z,98967.39
2018-04-19T22:27:14.187Z,98960.33
2018-04-19T22:29:40.431Z,98958.91
2018-04-19T22:32:06.650Z,98967.45
2018-04-19T22:34:32.891Z,98964.86
2018-04-19T22:36:59.114Z,98966.48
2018-04-19T22:39:25.371Z,98958.03
2018-04-19T22:41:51.602Z,98960.20
2018-04-19T22:44:17.823Z,98954.53
2018-04-19T22:46:44.111Z,98953.52
2018-04-19T22:49:10.339Z,98958.19
2018-04-19T22:51:36.622Z,98958.55
2018-04-19T22:54:02.850Z,98953.39
2018-04-19T22:56:29.107Z,98953.33
2018-04-19T22:58:55.335Z,98953.43
2018-04-19T23:01:21.587Z,98949.72
2018-04-19T23:03:47.874Z,98946.09
2018-04-19T23:06:14.124Z,98946.06
2018-04-19T23:08:40.346Z,98943.72
2018-04-19T23:11:06.572Z,98945.78
2018-04-19T23:13:32.816Z,98941.89
2018-04-19T23:15:59.050Z,98944.41
2018-04-19T23:18:25.310Z,98937.59
2018-04-19T23:20:51.534Z,98937.80
2018-04-19T23:23:17.783Z,98942.88
2018-04-19T23:25:44.004Z,98937.36
2018-04-19T23:28:10.250Z,98938.19
2018-04-19T23:30:36.524Z,98937.08
2018-04-19T23:33:02.792Z,98931.99
2018-04-19T23:35:29.015Z,98926.39
2018-04-19T23:37:55.264Z,98925.91
2018-04-19T23:40:21.504Z,98928.95
2018-04-19T23:42:47.755Z,98926.24
2018-04-19T23:45:14.001Z,98932.59
2018-04-19T23:47:40.224Z,98929.15
2018-04-19T23:50:06.467Z,98930.26
2018-04-19T23:52:32.686Z,98929.48
2018-04-19T23:54:58.911Z,98925.66
2018-04-19T23:57:25.188Z,98923.83
2018-04-19T23:59:51.419Z,98926.94
